createdAt,value
2019-03-20T00:01:53.852Z,2.97
2019-03-20T00:05:58.062Z,2.63
2019-03-20T00:10:02.578Z,2.90
2019-03-20T00:14:06.874Z,2.57
2019-03-20T00:18:11.097Z,2.63
2019-03-20T00:22:15.379Z,2.33
2019-03-20T00:26:19.613Z,2.83
2019-03-20T00:30:23.816Z,3.00
2019-03-20T00:34:27.982Z,2.77
2019-03-20T00:38:32.211Z,2.70
2019-03-20T00:42:36.623Z,2.70
2019-03-20T00:46:40.848Z,2.63
2019-03-20T00:50:45.091Z,2.40
2019-03-20T00:54:49.553Z,2.53
2019-03-20T00:58:53.830Z,2.43
2019-03-20T01:02:58.077Z,2.57
2019-03-20T01:07:02.250Z,2.10
2019-03-20T01:11:06.473Z,2.60
2019-03-20T01:15:10.658Z,2.20
2019-03-20T01:19:15.011Z,2.20
2019-03-20T01:23:19.519Z,2.03
2019-03-20T01:27:23.748Z,2.47
2019-03-20T01:31:28.017Z,2.50
2019-03-20T01:35:32.207Z,2.30
2019-03-20T01:39:36.785Z,2.10
2019-03-20T01:43:40.998Z,2.50
2019-03-20T01:47:45.213Z,3.00
2019-03-20T01:51:49.423Z,2.33
2019-03-20T01:55:53.676Z,2.07
2019-03-20T01:59:58.004Z,2.03
2019-03-20T02:04:02.544Z,2.30
2019-03-20T02:08:06.927Z,2.20
2019-03-20T02:12:11.244Z,2.30
2019-03-20T02:16:15.405Z,2.20
2019-03-20T02:20:20.067Z,2.53
2019-03-20T02:24:24.237Z,2.43
2019-03-20T02:28:28.445Z,2.37
2019-03-20T02:32:32.619Z,2.33
2019-03-20T02:36:36.859Z,2.20
2019-03-20T02:40:41.069Z,2.13
2019-03-20T02:44:45.282Z,2.47
2019-03-20T02:48:49.491Z,2.37
2019-03-20T02:52:53.689Z,2.50
2019-03-20T02:56:57.922Z,2.20
2019-03-20T03:01:02.134Z,2.30
2019-03-20T03:05:07.249Z,2.10
2019-03-20T03:09:11.464Z,2.53
2019-03-20T03:13:15.666Z,2.40
2019-03-20T03:17:19.948Z,2.33
2019-03-20T03:21:24.151Z,2.13
2019-03-20T03:25:28.421Z,2.40
2019-03-20T03:29:32.761Z,2.60
2019-03-20T03:33:36.991Z,2.17
2019-03-20T03:37:41.159Z,2.60
2019-03-20T03:41:45.378Z,2.50
2019-03-20T03:45:49.948Z,2.30
2019-03-20T03:49:54.314Z,2.37
2019-03-20T03:53:58.463Z,2.60
2019-03-20T03:58:02.702Z,2.37
2019-03-20T04:02:07.084Z,2.80
2019-03-20T04:06:11.306Z,2.63
2019-03-20T04:10:15.726Z,2.20
2019-03-20T04:14:20.233Z,2.40
2019-03-20T04:18:24.443Z,2.17
2019-03-20T04:22:28.612Z,2.20
2019-03-20T04:26:32.836Z,2.27
2019-03-20T04:30:37.073Z,3.10
2019-03-20T04:34:41.259Z,2.33
2019-03-20T04:38:45.484Z,2.30
2019-03-20T04:42:49.812Z,2.30
2019-03-20T04:46:54.064Z,2.23
2019-03-20T04:50:58.247Z,2.43
2019-03-20T04:55:02.464Z,2.47
2019-03-20T04:59:06.665Z,2.70
2019-03-20T05:03:10.988Z,2.40
2019-03-20T05:07:15.234Z,2.40
2019-03-20T05:11:19.434Z,2.30
2019-03-20T05:15:23.584Z,2.30
2019-03-20T05:19:28.033Z,2.40
2019-03-20T05:23:32.235Z,2.30
2019-03-20T05:27:36.465Z,2.23
2019-03-20T05:31:40.680Z,2.40
2019-03-20T05:35:44.958Z,2.60
2019-03-20T05:39:49.302Z,2.40
2019-03-20T05:43:53.577Z,2.20
2019-03-20T05:47:57.816Z,2.40
2019-03-20T05:52:02.083Z,2.60
2019-03-20T05:56:06.298Z,2.57
2019-03-20T06:00:12.584Z,2.43
2019-03-20T06:04:16.851Z,2.70
2019-03-20T06:08:21.148Z,2.07
2019-03-20T06:12:25.364Z,2.23
2019-03-20T06:16:29.611Z,2.60
2019-03-20T06:20:34.093Z,2.20
2019-03-20T06:24:38.432Z,2.60
2019-03-20T06:28:42.726Z,2.80
2019-03-20T06:32:46.922Z,2.50
2019-03-20T06:36:51.221Z,2.23
2019-03-20T06:40:55.440Z,2.47
2019-03-20T06:44:59.700Z,2.27
2019-03-20T06:49:04.076Z,2.10
2019-03-20T06:53:08.288Z,1.87
2019-03-20T06:57:12.520Z,2.33
2019-03-20T07:01:24.857Z,2.23
2019-03-20T07:05:59.871Z,2.43
2019-03-20T07:10:32.521Z,2.20
2019-03-20T07:14:36.714Z,2.50
2019-03-20T07:18:40.960Z,2.10
2019-03-20T07:22:45.635Z,2.23
2019-03-20T07:26:49.790Z,2.33
2019-03-20T07:30:54.049Z,2.33
2019-03-20T07:34:58.275Z,2.03
2019-03-20T07:39:02.494Z,2.43
2019-03-20T07:43:09.181Z,2.77
2019-03-20T07:47:12.627Z,2.73
2019-03-20T07:51:16.854Z,2.50
2019-03-20T07:55:21.440Z,2.57
2019-03-20T07:59:26.059Z,2.40
2019-03-20T08:03:30.275Z,2.20
2019-03-20T08:07:34.489Z,2.30
2019-03-20T08:11:38.719Z,2.50
2019-03-20T08:15:43.250Z,2.80
2019-03-20T08:19:47.473Z,2.27
2019-03-20T08:23:51.645Z,2.33
2019-03-20T08:27:55.845Z,2.60
2019-03-20T08:32:00.051Z,2.50
2019-03-20T08:36:04.535Z,2.37
2019-03-20T08:40:09.873Z,2.10
2019-03-20T08:44:14.098Z,2.37
2019-03-20T08:48:27.218Z,2.30
2019-03-20T08:52:31.473Z,2.47
2019-03-20T08:56:35.750Z,2.20
2019-03-20T09:00:40.084Z,2.37
2019-03-20T09:04:44.319Z,1.90
2019-03-20T09:08:48.483Z,2.43
2019-03-20T09:12:52.716Z,1.90
2019-03-20T09:16:56.955Z,2.33
2019-03-20T09:21:01.175Z,2.40
2019-03-20T09:25:06.451Z,2.10
2019-03-20T09:29:18.667Z,1.97
2019-03-20T09:33:16.746Z,2.07
2019-03-20T09:37:21.561Z,2.10
2019-03-20T09:41:25.799Z,2.00
2019-03-20T09:45:30.016Z,2.23
2019-03-20T09:49:34.294Z,2.33
2019-03-20T09:53:38.513Z,2.50
2019-03-20T09:57:42.794Z,2.10
2019-03-20T10:01:47.134Z,2.60
2019-03-20T10:05:51.333Z,1.70
2019-03-20T10:09:55.553Z,1.77
2019-03-20T10:13:59.857Z,2.17
2019-03-20T10:18:04.345Z,2.23
2019-03-20T10:22:08.508Z,1.40
2019-03-20T10:26:12.927Z,1.90
2019-03-20T10:30:19.425Z,1.60
2019-03-20T10:34:23.710Z,1.60
2019-03-20T10:38:28.021Z,1.60
2019-03-20T10:42:32.249Z,1.30
2019-03-20T10:46:36.462Z,1.30
2019-03-20T10:50:40.724Z,1.30
2019-03-20T10:54:44.991Z,1.13
2019-03-20T10:58:49.220Z,1.23
2019-03-20T11:02:53.822Z,1.40
2019-03-20T11:06:58.114Z,1.40
2019-03-20T11:11:02.690Z,1.10
2019-03-20T11:15:08.672Z,1.40
2019-03-20T11:19:13.414Z,1.33
2019-03-20T11:23:17.619Z,1.47
2019-03-20T11:27:21.886Z,1.60
2019-03-20T11:31:26.110Z,1.77
2019-03-20T11:35:30.876Z,1.90
2019-03-20T11:39:35.244Z,1.80
2019-03-20T11:43:39.479Z,2.37
2019-03-20T11:47:43.764Z,2.43
2019-03-20T11:51:48.058Z,2.13
2019-03-20T11:55:52.283Z,1.80
2019-03-20T11:59:56.534Z,1.60
2019-03-20T12:04:01.410Z,1.97
2019-03-20T12:08:05.675Z,1.63
2019-03-20T12:12:09.997Z,1.40
2019-03-20T12:16:14.249Z,1.77
2019-03-20T12:20:19.303Z,1.63
2019-03-20T12:24:23.546Z,1.60
2019-03-20T12:28:27.778Z,1.60
2019-03-20T12:32:32.042Z,1.47
2019-03-20T12:36:36.230Z,1.50
2019-03-20T12:40:40.767Z,1.40
2019-03-20T12:44:45.024Z,1.30
2019-03-20T12:48:49.232Z,1.60
2019-03-20T12:52:53.434Z,1.50
2019-03-20T12:56:57.712Z,1.47
2019-03-20T13:01:01.954Z,1.33
2019-03-20T13:05:07.213Z,1.10
2019-03-20T13:09:11.449Z,1.80
2019-03-20T13:13:15.765Z,1.30
2019-03-20T13:17:19.998Z,1.43
2019-03-20T13:21:25.632Z,1.30
2019-03-20T13:25:29.838Z,1.43
2019-03-20T13:29:34.099Z,1.60
2019-03-20T13:33:39.114Z,1.80
2019-03-20T13:37:43.333Z,1.90
2019-03-20T13:41:47.650Z,1.70
2019-03-20T13:45:51.846Z,1.70
2019-03-20T13:49:56.071Z,1.83
2019-03-20T13:54:00.430Z,1.90
2019-03-20T13:58:04.645Z,1.67
2019-03-20T14:02:09.102Z,1.53
2019-03-20T14:06:14.470Z,1.40
2019-03-20T14:10:25.197Z,1.73
2019-03-20T14:14:25.754Z,1.77
2019-03-20T14:18:30.153Z,1.57
2019-03-20T14:22:34.403Z,1.80
2019-03-20T14:26:38.770Z,2.03
2019-03-20T14:30:43.189Z,1.70
2019-03-20T14:34:47.823Z,1.90
2019-03-20T14:38:52.115Z,1.47
2019-03-20T14:42:56.354Z,1.67
2019-03-20T14:47:00.881Z,1.70
2019-03-20T14:51:05.109Z,2.00
2019-03-20T14:55:10.368Z,1.50
2019-03-20T14:59:14.696Z,1.80
2019-03-20T15:03:18.877Z,1.80
2019-03-20T15:07:23.151Z,2.00
2019-03-20T15:11:27.849Z,1.60
2019-03-20T15:15:55.730Z,2.07
2019-03-20T15:20:00.311Z,2.17
2019-03-20T15:24:04.564Z,2.73
2019-03-20T15:28:08.885Z,1.60
2019-03-20T15:32:13.283Z,2.07
2019-03-20T15:36:17.555Z,1.83
2019-03-20T15:40:21.932Z,1.93
2019-03-20T15:44:26.165Z,1.90
2019-03-20T15:48:30.370Z,1.77
2019-03-20T15:52:34.606Z,2.30
2019-03-20T15:56:39.050Z,1.93
2019-03-20T16:00:43.383Z,2.00
2019-03-20T16:04:47.560Z,1.70
2019-03-20T16:08:55.048Z,2.07
2019-03-20T16:12:59.085Z,2.17
2019-03-20T16:17:03.469Z,1.57
2019-03-20T16:21:07.858Z,2.10
2019-03-20T16:25:13.046Z,2.00
2019-03-20T16:29:17.262Z,2.00
2019-03-20T16:33:21.518Z,1.83
2019-03-20T16:37:25.815Z,2.30
2019-03-20T16:41:30.018Z,1.80
2019-03-20T16:45:35.467Z,1.83
2019-03-20T16:49:39.717Z,2.00
2019-03-20T16:53:43.972Z,2.10
2019-03-20T16:57:48.190Z,2.33
2019-03-20T17:01:52.430Z,1.77
2019-03-20T17:05:56.822Z,2.17
2019-03-20T17:10:01.007Z,2.20
2019-03-20T17:14:05.587Z,2.30
2019-03-20T17:18:10.155Z,2.20
2019-03-20T17:22:14.617Z,2.00
2019-03-20T17:26:20.081Z,2.20
2019-03-20T17:30:35.390Z,2.37
2019-03-20T17:34:39.919Z,2.30
2019-03-20T17:38:44.489Z,2.20
2019-03-20T17:42:48.797Z,2.20
2019-03-20T17:46:53.100Z,2.20
2019-03-20T17:50:57.315Z,2.50
2019-03-20T17:55:01.567Z,3.07
2019-03-20T17:59:06.200Z,3.00
2019-03-20T18:03:10.744Z,2.60
2019-03-20T18:07:14.970Z,2.87
2019-03-20T18:11:19.214Z,2.60
2019-03-20T18:15:23.490Z,2.30
2019-03-20T18:19:27.754Z,2.73
2019-03-20T18:23:31.991Z,2.80
2019-03-20T18:27:36.221Z,2.93
2019-03-20T18:31:45.888Z,2.57
2019-03-20T18:35:46.484Z,2.10
2019-03-20T18:39:51.029Z,2.30
2019-03-20T18:43:55.297Z,2.70
2019-03-20T18:47:59.517Z,2.23
2019-03-20T18:52:03.715Z,2.47
2019-03-20T18:56:08.137Z,2.60
2019-03-20T19:00:15.436Z,2.73
2019-03-20T19:04:19.607Z,2.93
2019-03-20T19:08:23.838Z,2.73
2019-03-20T19:12:28.232Z,15.03
2019-03-20T19:16:32.459Z,11.47
2019-03-20T19:20:36.821Z,3.47
2019-03-20T19:24:41.189Z,2.93
2019-03-20T19:28:45.694Z,3.60
2019-03-20T19:32:49.956Z,2.73
2019-03-20T19:36:54.159Z,2.60
2019-03-20T19:40:58.827Z,2.83
2019-03-20T19:45:03.355Z,2.60
2019-03-20T19:49:08.007Z,3.60
2019-03-20T19:53:12.319Z,3.00
2019-03-20T19:57:16.653Z,3.20
2019-03-20T20:01:20.942Z,2.93
2019-03-20T20:05:25.401Z,2.83
2019-03-20T20:09:29.623Z,2.70
2019-03-20T20:13:33.866Z,2.60
2019-03-20T20:17:38.562Z,3.27
2019-03-20T20:21:42.967Z,3.23
2019-03-20T20:25:47.393Z,3.23
2019-03-20T20:29:51.817Z,3.30
2019-03-20T20:33:56.167Z,3.27
2019-03-20T20:38:00.621Z,3.50
2019-03-20T20:42:05.210Z,3.30
2019-03-20T20:46:09.454Z,3.17
2019-03-20T20:50:14.295Z,3.20
2019-03-20T20:54:18.602Z,2.80
2019-03-20T20:58:22.824Z,3.77
2019-03-20T21:02:27.698Z,4.10
2019-03-20T21:06:32.093Z,3.77
2019-03-20T21:10:36.678Z,3.97
2019-03-20T21:14:41.047Z,3.67
2019-03-20T21:19:22.447Z,3.13
2019-03-20T21:24:12.750Z,3.40
2019-03-20T21:28:59.043Z,2.93
2019-03-20T21:33:04.958Z,3.57
2019-03-20T21:37:45.015Z,3.87
2019-03-20T21:42:39.917Z,3.77
2019-03-20T21:47:33.501Z,3.17
2019-03-20T21:51:39.583Z,3.43
2019-03-20T21:56:20.998Z,3.60
2019-03-20T22:01:09.366Z,3.50
2019-03-20T22:05:35.039Z,3.40
2019-03-20T22:10:21.404Z,3.30
2019-03-20T22:14:26.296Z,3.27
2019-03-20T22:18:59.473Z,3.40
2019-03-20T22:23:28.096Z,3.20
2019-03-20T22:27:53.384Z,3.23
2019-03-20T22:32:53.736Z,3.57
2019-03-20T22:36:58.615Z,3.07
2019-03-20T22:41:40.251Z,3.27
2019-03-20T22:46:19.792Z,3.07
2019-03-20T22:50:38.685Z,3.27
2019-03-20T22:55:38.801Z,3.07
2019-03-20T22:59:43.601Z,3.57
2019-03-20T23:03:52.995Z,3.27
2019-03-20T23:07:57.968Z,3.80
2019-03-20T23:12:05.288Z,3.20
2019-03-20T23:16:11.342Z,3.43
2019-03-20T23:20:18.912Z,3.43
2019-03-20T23:24:23.634Z,4.27
2019-03-20T23:28:28.402Z,3.50
2019-03-20T23:32:33.335Z,3.70
2019-03-20T23:36:38.177Z,3.40
2019-03-20T23:40:43.000Z,3.40
2019-03-20T23:44:47.784Z,3.77
2019-03-20T23:48:59.638Z,4.07
2019-03-20T23:53:05.322Z,3.40
2019-03-20T23:57:10.208Z,3.33
